5NC7 weather

Public forecast

Using degrees Fahrenheit for public forecast. Weather courtesy of forecast.io.

Closest aviation weather report (METAR) to Nc Baptist Hospital Heliport

Closest report is Smith Reynolds Airport, 3.4 nm (6.3 km) NE. Retrieved 2020/08/09 07:54 UTC (23 minutes ago):

KINT 090754Z AUTO 01005KT 10SM CLR 22/22 A3016 RMK AO2 SLP201 T02170217

Closest aviation forecast (TAF) to Nc Baptist Hospital Heliport

Closest forecast is Smith Reynolds Airport, 3.4 nm (6.3 km) NE. Retrieved 2020/08/09 06:33 UTC (2 hours ago):

TAF KINT 090531Z 0906/1006 00000KT P6SM SCT250 TEMPO 0908/0912 2SM BR SCT003 FM091200 VRB03KT P6SM SCT015 FM091800 22003KT P6SM SCT040